Enter the Airport ICAO Code

Search by Airport or City

Current Weather

SCTE | El Tepual Airport

Puerto Montt, Chile

Last Update 6 Minutes Ago

Mostly Cloudy Sky

Temperature of 15 ºC

Light to Moderate Winds from SouthWest

Temperature

15 ºC

Dew Point Temperature

09 ºC

Relative Humidity

67.47 %

Wind Direction

SouthWest (230º, Ranging from 220º to 280º)

Wind Velocity

13 km/h (07 kt)

Gusts

None

Visibility

Greater than 10 Kilometers

Sea Level Pressure

1020 hPa (Hectopascals)

Layers of Clouds

30% to 60% of Sky Covered from 762 mts (2500 ft) Above Ground Level.

60% to 90% of Sky Covered from 3658 mts (12000 ft) Above Ground Level.

METAR SCTE 202200Z 23007KT 220V280 9999 SCT025 BKN120 15/09 Q1020 NOSIG

Weather Forecast

SCTE | El Tepual Airport

Puerto Montt, Chile

Forecast valid for the next 20 Hours

In the next 2 hours it is expected the begining of:

Light Rain, Light Rain

Light Winds from Variable Directions

In 5 to 7 hours it is expected the begining of:

Completely Cloudy Sky

Light to Moderate Winds from West

In 13 to 15 hours it is expected the begining of:

Mostly Cloudy Sky

Light to Moderate Winds from South

Maximum Temperature

15 ºC in -4 Hours

Minimum Temperature

07 ºC in 12 Hours

TAF SCTE 201613Z 2018/2118 33007KT 9999 SCT012 BKN018 TX15/2018Z TN07/2110Z BECMG 2022/2024 VRB03KT 8000 -RA -SHRA BKN020 BKN050 BECMG 2103/2105 26006KT OVC015 BECMG 2111/2113 19008KT 9999 NSW FEW010 BKN030